createdAt,value
2018-09-08T00:01:48.956Z,23.25
2018-09-08T00:04:15.609Z,23.22
2018-09-08T00:06:42.293Z,23.22
2018-09-08T00:09:09.472Z,23.22
2018-09-08T00:11:37.661Z,23.24
2018-09-08T00:14:05.316Z,23.23
2018-09-08T00:16:38.489Z,23.25
2018-09-08T00:19:11.776Z,23.19
2018-09-08T00:21:44.952Z,23.15
2018-09-08T00:24:24.409Z,23.08
2018-09-08T00:26:52.257Z,23.11
2018-09-08T00:29:25.377Z,23.14
2018-09-08T00:31:53.384Z,23.14
2018-09-08T00:34:22.210Z,23.14
2018-09-08T00:36:49.760Z,23.16
2018-09-08T00:39:17.333Z,23.19
2018-09-08T00:41:44.008Z,23.15
2018-09-08T00:44:11.644Z,23.16
2018-09-08T00:46:38.291Z,23.18
2018-09-08T00:49:04.945Z,23.12
2018-09-08T00:51:31.595Z,23.17
2018-09-08T00:53:58.620Z,23.14
2018-09-08T00:56:26.231Z,23.12
2018-09-08T00:58:58.626Z,23.11
2018-09-08T01:01:26.230Z,23.09
2018-09-08T01:03:52.952Z,23.10
2018-09-08T01:06:20.501Z,23.13
2018-09-08T01:08:48.100Z,23.12
2018-09-08T01:11:15.751Z,23.09
2018-09-08T01:13:43.306Z,23.09
2018-09-08T01:16:10.755Z,23.11
2018-09-08T01:18:38.396Z,23.09
2018-09-08T01:21:08.000Z,23.10
2018-09-08T01:23:34.851Z,23.12
2018-09-08T01:26:02.577Z,23.12
2018-09-08T01:28:30.102Z,23.12
2018-09-08T01:30:56.776Z,23.14
2018-09-08T01:33:24.495Z,23.12
2018-09-08T01:35:54.501Z,23.10
2018-09-08T01:38:23.664Z,23.10
2018-09-08T01:40:50.347Z,23.07
2018-09-08T01:43:18.071Z,23.09
2018-09-08T01:45:45.692Z,23.09
2018-09-08T01:48:13.296Z,23.04
2018-09-08T01:50:40.025Z,23.09
2018-09-08T01:53:07.655Z,23.10
2018-09-08T01:55:35.172Z,23.10
2018-09-08T01:58:02.697Z,23.08
2018-09-08T02:00:30.225Z,23.08
2018-09-08T02:02:57.868Z,23.13
2018-09-08T02:05:25.522Z,23.09
2018-09-08T02:07:53.364Z,23.10
2018-09-08T02:10:20.013Z,23.07
2018-09-08T02:12:48.631Z,23.05
2018-09-08T02:15:16.121Z,23.06
2018-09-08T02:17:44.268Z,23.07
2018-09-08T02:20:11.708Z,23.11
2018-09-08T02:22:39.456Z,23.06
2018-09-08T02:25:06.986Z,23.05
2018-09-08T02:27:34.620Z,23.08
2018-09-08T02:30:01.284Z,23.11
2018-09-08T02:32:28.949Z,23.03
2018-09-08T02:34:55.608Z,23.07
2018-09-08T02:37:24.619Z,23.07
2018-09-08T02:39:53.712Z,23.04
2018-09-08T02:42:22.040Z,23.04
2018-09-08T02:44:49.604Z,23.04
2018-09-08T02:47:16.884Z,23.05
2018-09-08T02:49:49.131Z,23.04
2018-09-08T02:52:17.672Z,23.03
2018-09-08T02:54:43.853Z,22.99
2018-09-08T02:57:11.051Z,22.96
2018-09-08T02:59:37.252Z,22.97
2018-09-08T03:02:03.470Z,22.96
2018-09-08T03:04:29.661Z,22.95
2018-09-08T03:06:56.684Z,22.97
2018-09-08T03:09:23.749Z,23.02
2018-09-08T03:11:51.921Z,22.99
2018-09-08T03:14:19.061Z,22.98
2018-09-08T03:16:46.053Z,22.97
2018-09-08T03:19:13.060Z,22.99
2018-09-08T03:21:40.031Z,23.01
2018-09-08T03:24:07.038Z,23.00
2018-09-08T03:26:34.005Z,23.04
2018-09-08T03:29:00.220Z,23.03
2018-09-08T03:31:27.332Z,23.02
2018-09-08T03:33:54.438Z,23.04
2018-09-08T03:36:22.320Z,23.04
2018-09-08T03:38:49.533Z,23.07
2018-09-08T03:41:17.676Z,23.06
2018-09-08T03:43:45.089Z,23.06
2018-09-08T03:46:12.060Z,23.01
2018-09-08T03:48:39.036Z,23.03
2018-09-08T03:51:05.985Z,23.00
2018-09-08T03:53:33.031Z,23.00
2018-09-08T03:55:59.223Z,23.03
2018-09-08T03:58:26.370Z,23.03
2018-09-08T04:00:53.433Z,23.07
2018-09-08T04:03:22.184Z,22.98
2018-09-08T04:05:49.641Z,22.97
2018-09-08T04:08:18.514Z,23.00
2018-09-08T04:10:46.164Z,23.00
2018-09-08T04:13:14.488Z,22.98
2018-09-08T04:15:42.116Z,22.98
2018-09-08T04:18:09.815Z,23.02
2018-09-08T04:20:36.403Z,23.00
2018-09-08T04:23:03.053Z,23.02
2018-09-08T04:25:29.708Z,22.98
2018-09-08T04:27:57.334Z,22.99
2018-09-08T04:30:24.082Z,22.98
2018-09-08T04:32:52.609Z,23.03
2018-09-08T04:35:20.228Z,23.00
2018-09-08T04:37:49.327Z,23.01
2018-09-08T04:40:17.996Z,22.98
2018-09-08T04:42:45.941Z,22.97
2018-09-08T04:45:13.444Z,22.96
2018-09-08T04:47:41.116Z,22.98
2018-09-08T04:50:08.761Z,22.96
2018-09-08T04:52:36.260Z,22.96
2018-09-08T04:55:02.972Z,22.93
2018-09-08T04:57:30.480Z,22.97
2018-09-08T04:59:58.032Z,22.96
2018-09-08T05:02:25.559Z,22.98
2018-09-08T05:04:53.080Z,22.98
2018-09-08T05:07:21.721Z,22.96
2018-09-08T05:09:49.244Z,22.96
2018-09-08T05:12:17.796Z,22.98
2018-09-08T05:14:44.477Z,22.97
2018-09-08T05:17:11.142Z,22.99
2018-09-08T05:19:37.821Z,22.98
2018-09-08T05:22:04.644Z,23.04
2018-09-08T05:24:32.329Z,23.04
2018-09-08T05:26:59.005Z,23.05
2018-09-08T05:29:26.565Z,23.00
2018-09-08T05:31:53.238Z,22.97
2018-09-08T05:34:19.900Z,23.00
2018-09-08T05:36:47.524Z,22.97
2018-09-08T05:39:14.349Z,23.00
2018-09-08T05:41:42.437Z,22.97
2018-09-08T05:44:09.084Z,22.98
2018-09-08T05:46:35.759Z,23.03
2018-09-08T05:49:02.425Z,23.02
2018-09-08T05:51:29.092Z,23.01
2018-09-08T05:53:55.824Z,23.00
2018-09-08T05:56:23.100Z,22.94
2018-09-08T05:58:49.881Z,23.00
2018-09-08T06:01:17.524Z,23.00
2018-09-08T06:03:53.683Z,22.98
2018-09-08T06:06:20.485Z,22.97
2018-09-08T06:08:49.504Z,23.00
2018-09-08T06:11:18.144Z,22.98
2018-09-08T06:13:44.841Z,22.99
2018-09-08T06:16:12.492Z,22.99
2018-09-08T06:18:40.126Z,23.00
2018-09-08T06:21:07.845Z,23.03
2018-09-08T06:23:35.445Z,23.00
2018-09-08T06:26:03.053Z,22.99
2018-09-08T06:28:30.574Z,23.00
2018-09-08T06:30:58.232Z,22.98
2018-09-08T06:33:25.988Z,23.03
2018-09-08T06:35:54.842Z,23.06
2018-09-08T06:38:23.940Z,23.03
2018-09-08T06:40:52.543Z,23.06
2018-09-08T06:43:19.665Z,23.03
2018-09-08T06:45:47.316Z,23.05
2018-09-08T06:48:15.004Z,23.05
2018-09-08T06:50:42.612Z,23.09
2018-09-08T06:53:10.282Z,23.03
2018-09-08T06:55:37.949Z,23.03
2018-09-08T06:58:05.454Z,23.08
2018-09-08T07:00:32.949Z,23.09
2018-09-08T07:03:00.476Z,23.10
2018-09-08T07:05:27.228Z,23.11
2018-09-08T07:07:54.865Z,23.12
2018-09-08T07:10:23.522Z,23.11
2018-09-08T07:12:52.349Z,23.06
2018-09-08T07:15:20.053Z,23.03
2018-09-08T07:17:48.656Z,23.06
2018-09-08T07:20:16.069Z,23.08
2018-09-08T07:22:43.724Z,23.10
2018-09-08T07:25:11.391Z,23.13
2018-09-08T07:27:38.940Z,23.08
2018-09-08T07:30:06.589Z,23.16
2018-09-08T07:32:34.276Z,23.18
2018-09-08T07:35:01.897Z,23.16
2018-09-08T07:37:28.666Z,23.16
2018-09-08T07:39:56.149Z,23.18
2018-09-08T07:42:22.857Z,23.18
2018-09-08T07:44:50.412Z,23.16
2018-09-08T07:47:18.189Z,23.19
2018-09-08T07:49:45.720Z,23.19
2018-09-08T07:52:12.568Z,23.18
2018-09-08T07:54:40.208Z,23.22
2018-09-08T07:57:06.939Z,23.16
2018-09-08T07:59:33.614Z,23.17
2018-09-08T08:02:00.275Z,23.18
2018-09-08T08:04:26.941Z,23.22
2018-09-08T08:06:53.678Z,23.23
2018-09-08T08:09:21.867Z,23.24
2018-09-08T08:11:48.518Z,23.25
2018-09-08T08:14:15.208Z,23.23
2018-09-08T08:16:41.858Z,23.24
2018-09-08T08:19:09.372Z,23.26
2018-09-08T08:21:37.077Z,23.25
2018-09-08T08:24:04.817Z,23.27
2018-09-08T08:26:32.433Z,23.29
2018-09-08T08:28:59.205Z,23.26
2018-09-08T08:31:25.871Z,23.26
2018-09-08T08:33:53.348Z,23.24
2018-09-08T08:36:21.889Z,23.23
2018-09-08T08:38:49.360Z,23.21
2018-09-08T08:41:17.628Z,23.26
2018-09-08T08:43:44.331Z,23.27
2018-09-08T08:46:11.979Z,23.29
2018-09-08T08:48:39.453Z,23.32
2018-09-08T08:51:11.919Z,23.38
2018-09-08T08:53:44.220Z,23.41
2018-09-08T08:56:10.880Z,23.45
2018-09-08T08:58:38.669Z,23.56
2018-09-08T09:01:06.098Z,23.62
2018-09-08T09:03:33.776Z,23.66
2018-09-08T09:06:01.441Z,23.65
2018-09-08T09:08:29.481Z,23.69
2018-09-08T09:10:55.888Z,23.72
2018-09-08T09:13:23.595Z,23.75
2018-09-08T09:15:51.733Z,23.77
2018-09-08T09:18:25.777Z,23.75
2018-09-08T09:20:59.537Z,23.76
2018-09-08T09:27:51.798Z,23.71
2018-09-08T09:30:19.158Z,22.64
2018-09-08T09:32:45.868Z,23.21
2018-09-08T09:35:13.699Z,23.49
2018-09-08T09:37:40.539Z,23.62
2018-09-08T09:40:07.400Z,23.65
2018-09-08T09:42:34.052Z,23.70
2018-09-08T09:45:00.696Z,23.69
2018-09-08T09:47:27.343Z,23.70
2018-09-08T09:49:54.114Z,23.70
2018-09-08T09:52:21.818Z,23.71
2018-09-08T09:54:48.560Z,23.69
2018-09-08T09:57:15.241Z,23.71
2018-09-08T09:59:42.003Z,23.70
2018-09-08T10:03:11.662Z,23.70
2018-09-08T10:05:38.320Z,23.23
2018-09-08T10:08:04.961Z,23.44
2018-09-08T10:10:31.666Z,23.55
2018-09-08T10:12:58.318Z,23.62
2018-09-08T10:15:24.956Z,23.66
2018-09-08T10:17:53.501Z,23.65
2018-09-08T10:20:22.254Z,23.63
2018-09-08T10:22:49.856Z,23.67
2018-09-08T10:25:18.248Z,23.68
2018-09-08T10:27:46.230Z,23.68
2018-09-08T10:30:14.240Z,23.64
2018-09-08T10:32:41.845Z,23.62
2018-09-08T10:35:09.316Z,23.68
2018-09-08T10:37:36.005Z,23.67
2018-09-08T10:40:03.460Z,23.66
2018-09-08T10:42:30.462Z,23.62
2018-09-08T10:44:58.185Z,23.62
2018-09-08T10:47:24.881Z,23.58
2018-09-08T10:49:52.349Z,23.60
2018-09-08T10:52:23.124Z,23.60
2018-09-08T10:54:50.732Z,23.56
2018-09-08T10:57:19.033Z,23.60
2018-09-08T10:59:45.712Z,23.57
2018-09-08T11:02:12.537Z,23.66
2018-09-08T11:04:39.101Z,23.60
2018-09-08T11:07:06.641Z,23.59
2018-09-08T11:09:34.191Z,23.57
2018-09-08T11:12:00.849Z,23.57
2018-09-08T11:14:27.496Z,23.57
2018-09-08T11:16:54.151Z,23.54
2018-09-08T11:19:22.201Z,23.59
2018-09-08T11:21:49.812Z,23.58
2018-09-08T11:24:17.616Z,23.56
2018-09-08T11:26:45.126Z,23.52
2018-09-08T11:29:11.759Z,23.56
2018-09-08T11:31:38.452Z,23.54
2018-09-08T11:34:05.106Z,23.54
2018-09-08T11:36:31.739Z,23.54
2018-09-08T11:38:58.916Z,23.56
2018-09-08T11:41:25.533Z,23.55
2018-09-08T11:43:53.209Z,23.54
2018-09-08T11:46:19.853Z,23.55
2018-09-08T11:48:47.293Z,23.55
2018-09-08T11:51:13.933Z,23.54
2018-09-08T11:53:40.619Z,23.51
2018-09-08T11:56:07.244Z,23.51
2018-09-08T11:58:33.868Z,23.51
2018-09-08T12:01:00.519Z,23.53
2018-09-08T12:03:27.164Z,23.52
2018-09-08T12:05:54.959Z,23.53
2018-09-08T12:08:22.440Z,23.49
2018-09-08T12:10:49.121Z,23.48
2018-09-08T12:13:15.749Z,23.49
2018-09-08T12:15:42.393Z,23.53
2018-09-08T12:18:09.857Z,23.61
2018-09-08T12:20:36.497Z,23.50
2018-09-08T12:23:03.137Z,23.50
2018-09-08T12:25:29.917Z,23.49
2018-09-08T12:27:56.549Z,23.49
2018-09-08T12:30:24.135Z,23.49
2018-09-08T12:32:52.729Z,23.45
2018-09-08T12:35:19.368Z,23.47
2018-09-08T12:37:46.014Z,23.48
2018-09-08T12:40:12.689Z,23.47
2018-09-08T12:42:40.137Z,23.47
2018-09-08T12:45:06.848Z,23.45
2018-09-08T12:47:33.512Z,23.45
2018-09-08T12:50:01.045Z,23.47
2018-09-08T12:52:27.689Z,23.46
2018-09-08T12:54:54.385Z,23.46
2018-09-08T12:57:22.116Z,23.44
2018-09-08T12:59:48.781Z,23.44
2018-09-08T13:02:15.438Z,23.46
2018-09-08T13:04:42.096Z,23.45
2018-09-08T13:07:08.757Z,23.44
2018-09-08T13:09:35.400Z,23.42
2018-09-08T13:12:02.110Z,23.42
2018-09-08T13:14:28.754Z,23.42
2018-09-08T13:16:55.411Z,23.44
2018-09-08T13:19:22.776Z,23.45
2018-09-08T13:21:49.530Z,23.43
2018-09-08T13:24:16.200Z,23.43
2018-09-08T13:26:42.937Z,23.42
2018-09-08T13:29:10.650Z,23.45
2018-09-08T13:31:37.392Z,23.45
2018-09-08T13:34:04.074Z,23.41
2018-09-08T13:36:30.809Z,23.42
2018-09-08T13:38:57.522Z,23.41
2018-09-08T13:41:25.021Z,23.43
2018-09-08T13:43:52.508Z,23.38
2018-09-08T13:46:19.178Z,23.41
2018-09-08T13:48:45.877Z,23.43
2018-09-08T13:51:13.480Z,23.43
2018-09-08T13:53:41.124Z,23.44
2018-09-08T13:56:07.896Z,23.43
2018-09-08T13:58:35.468Z,23.42
2018-09-08T14:01:03.163Z,23.43
2018-09-08T14:03:29.808Z,23.41
2018-09-08T14:05:57.484Z,23.43
2018-09-08T14:08:24.187Z,23.42
2018-09-08T14:10:52.527Z,23.41
2018-09-08T14:13:20.029Z,23.42
2018-09-08T14:15:48.407Z,23.41
2018-09-08T14:18:15.049Z,23.41
2018-09-08T14:20:41.757Z,23.42
2018-09-08T14:23:09.251Z,23.38
2018-09-08T14:25:35.924Z,23.37
2018-09-08T14:28:03.612Z,23.38
2018-09-08T14:30:31.212Z,23.42
2018-09-08T14:32:59.064Z,23.40
2018-09-08T14:35:25.788Z,23.40
2018-09-08T14:37:53.001Z,23.38
2018-09-08T14:40:19.693Z,23.41
2018-09-08T14:42:46.535Z,23.39
2018-09-08T14:45:13.306Z,23.41
2018-09-08T14:47:41.325Z,23.42
2018-09-08T14:50:08.034Z,23.41
2018-09-08T14:52:34.685Z,23.41
2018-09-08T14:55:01.358Z,23.39
2018-09-08T14:57:28.031Z,23.38
2018-09-08T14:59:54.700Z,23.37
2018-09-08T15:02:22.855Z,23.39
2018-09-08T15:04:50.062Z,23.38
2018-09-08T15:07:17.590Z,23.39
2018-09-08T15:09:44.237Z,23.38
2018-09-08T15:12:10.972Z,23.40
2018-09-08T15:14:37.622Z,23.39
2018-09-08T15:17:05.395Z,23.38
2018-09-08T15:19:32.070Z,23.39
2018-09-08T15:21:59.748Z,23.38
2018-09-08T15:24:27.432Z,23.39
2018-09-08T15:26:54.067Z,23.38
2018-09-08T15:29:22.797Z,23.40
2018-09-08T15:31:50.430Z,23.38
2018-09-08T15:34:18.628Z,23.39
2018-09-08T15:36:46.313Z,23.38
2018-09-08T15:39:14.017Z,23.36
2018-09-08T15:41:41.543Z,23.38
2018-09-08T15:44:09.194Z,23.38
2018-09-08T15:46:35.909Z,23.39
2018-09-08T15:49:03.378Z,23.37
2018-09-08T15:51:30.952Z,23.37
2018-09-08T15:53:58.573Z,23.33
2018-09-08T15:56:26.336Z,23.34
2018-09-08T15:58:53.001Z,23.35
2018-09-08T16:01:19.653Z,23.38
2018-09-08T16:03:47.929Z,23.37
2018-09-08T16:06:15.542Z,23.36
2018-09-08T16:08:43.165Z,23.37
2018-09-08T16:11:11.345Z,23.34
2018-09-08T16:13:39.040Z,23.35
2018-09-08T16:16:06.665Z,23.33
2018-09-08T16:18:34.260Z,23.33
2018-09-08T16:21:00.949Z,23.34
2018-09-08T16:23:27.685Z,23.35
2018-09-08T16:25:55.247Z,23.34
2018-09-08T16:28:22.929Z,23.35
2018-09-08T16:30:50.551Z,23.36
2018-09-08T16:33:18.963Z,23.34
2018-09-08T16:35:45.629Z,23.34
2018-09-08T16:38:12.289Z,23.33
2018-09-08T16:40:38.962Z,23.32
2018-09-08T16:43:05.618Z,23.32
2018-09-08T16:45:32.292Z,23.34
2018-09-08T16:47:58.964Z,23.34
2018-09-08T16:50:25.622Z,23.32
2018-09-08T16:52:53.425Z,23.32
2018-09-08T16:55:20.099Z,23.32
2018-09-08T16:57:47.402Z,23.31
2018-09-08T17:00:14.640Z,23.33
2018-09-08T17:02:41.297Z,23.33
2018-09-08T17:05:08.145Z,23.31
2018-09-08T17:07:34.677Z,23.30
2018-09-08T17:10:01.340Z,23.31
2018-09-08T17:12:28.045Z,23.29
2018-09-08T17:14:54.696Z,23.23
2018-09-08T17:17:23.774Z,23.26
2018-09-08T17:19:52.505Z,23.25
2018-09-08T17:22:19.254Z,23.19
2018-09-08T17:24:45.960Z,23.19
2018-09-08T17:27:12.621Z,23.18
2018-09-08T17:29:40.258Z,23.22
2018-09-08T17:32:07.945Z,23.14
2018-09-08T17:34:35.577Z,23.17
2018-09-08T17:37:02.249Z,23.18
2018-09-08T17:39:28.949Z,23.19
2018-09-08T17:41:56.541Z,23.18
2018-09-08T17:44:24.081Z,23.15
2018-09-08T17:46:51.908Z,23.13
2018-09-08T17:49:19.380Z,23.15
2018-09-08T17:51:46.260Z,23.16
2018-09-08T17:54:13.932Z,23.14
2018-09-08T17:56:40.613Z,23.13
2018-09-08T17:59:07.322Z,23.14
2018-09-08T18:01:33.988Z,23.12
2018-09-08T18:04:00.701Z,23.13
2018-09-08T18:06:28.312Z,23.10
2018-09-08T18:08:55.776Z,23.12
2018-09-08T18:11:24.488Z,23.13
2018-09-08T18:13:53.059Z,23.13
2018-09-08T18:16:20.668Z,23.12
2018-09-08T18:18:47.997Z,23.13
2018-09-08T18:21:14.784Z,23.13
2018-09-08T18:23:41.589Z,23.13
2018-09-08T18:26:09.100Z,23.13
2018-09-08T18:28:36.737Z,23.11
2018-09-08T18:31:04.402Z,23.12
2018-09-08T18:33:31.065Z,23.13
2018-09-08T18:35:59.160Z,23.14
2018-09-08T18:38:26.724Z,23.13
2018-09-08T18:40:53.397Z,23.13
2018-09-08T18:43:22.310Z,23.12
2018-09-08T18:45:49.749Z,23.11
2018-09-08T18:48:16.421Z,23.07
2018-09-08T18:50:44.238Z,23.09
2018-09-08T18:53:11.772Z,23.07
2018-09-08T18:55:38.457Z,23.08
2018-09-08T18:58:05.748Z,23.09
2018-09-08T19:00:33.390Z,23.06
2018-09-08T19:03:01.027Z,23.08
2018-09-08T19:05:28.776Z,23.03
2018-09-08T19:07:56.829Z,23.04
2018-09-08T19:10:24.285Z,23.05
2018-09-08T19:12:53.034Z,23.04
2018-09-08T19:15:20.520Z,23.06
2018-09-08T19:17:49.053Z,23.00
2018-09-08T19:20:22.284Z,23.04
2018-09-08T19:22:49.995Z,23.05
2018-09-08T19:25:18.758Z,23.04
2018-09-08T19:27:46.424Z,23.04
2018-09-08T19:30:14.005Z,23.02
2018-09-08T19:32:41.595Z,23.08
2018-09-08T19:35:13.869Z,23.04
2018-09-08T19:37:41.416Z,23.02
2018-09-08T19:40:14.565Z,23.07
2018-09-08T19:42:42.076Z,23.03
2018-09-08T19:45:08.779Z,23.05
2018-09-08T19:47:42.043Z,23.03
2018-09-08T19:50:09.577Z,23.03
2018-09-08T19:52:42.991Z,23.02
2018-09-08T19:55:10.653Z,22.98
2018-09-08T19:57:43.005Z,23.02
2018-09-08T20:00:10.669Z,22.97
2018-09-08T20:02:37.345Z,22.98
2018-09-08T20:05:04.127Z,23.03
2018-09-08T20:07:30.791Z,23.02
2018-09-08T20:09:57.457Z,23.07
2018-09-08T20:12:24.097Z,23.02
2018-09-08T20:14:51.831Z,23.01
2018-09-08T20:17:18.617Z,23.01
2018-09-08T20:19:46.154Z,23.02
2018-09-08T20:22:12.766Z,23.02
2018-09-08T20:24:39.433Z,22.96
2018-09-08T20:27:06.128Z,22.98
2018-09-08T20:29:33.764Z,23.02
2018-09-08T20:32:01.468Z,23.01
2018-09-08T20:34:28.166Z,22.97
2018-09-08T20:36:54.976Z,23.00
2018-09-08T20:39:22.592Z,23.00
2018-09-08T20:41:50.228Z,22.98
2018-09-08T20:44:18.592Z,23.00
2018-09-08T20:46:46.203Z,22.96
2018-09-08T20:49:13.786Z,22.99
2018-09-08T20:51:41.304Z,23.00
2018-09-08T20:54:08.909Z,22.99
2018-09-08T20:56:36.613Z,23.02
2018-09-08T20:59:04.213Z,22.99
2018-09-08T21:01:30.944Z,23.02
2018-09-08T21:03:58.461Z,23.01
2018-09-08T21:06:26.228Z,23.02
2018-09-08T21:08:52.881Z,23.00
2018-09-08T21:11:22.138Z,22.99
2018-09-08T21:13:50.305Z,22.98
2018-09-08T21:16:18.301Z,22.95
2018-09-08T21:18:49.181Z,22.90
2018-09-08T21:21:17.987Z,22.93
2018-09-08T21:23:45.619Z,22.89
2018-09-08T21:26:13.141Z,22.91
2018-09-08T21:28:40.792Z,22.94
2018-09-08T21:31:08.420Z,22.96
2018-09-08T21:33:36.087Z,22.98
2018-09-08T21:36:02.727Z,23.00
2018-09-08T21:38:30.157Z,22.98
2018-09-08T21:40:56.896Z,22.92
2018-09-08T21:43:24.462Z,22.96
2018-09-08T21:45:54.437Z,22.99
2018-09-08T21:48:22.004Z,22.98
2018-09-08T21:50:50.055Z,22.97
2018-09-08T21:53:16.715Z,22.98
2018-09-08T21:55:43.384Z,22.99
2018-09-08T21:58:10.084Z,23.02
2018-09-08T22:00:36.765Z,23.01
2018-09-08T22:03:03.678Z,23.00
2018-09-08T22:05:30.441Z,22.98
2018-09-08T22:07:57.124Z,22.98
2018-09-08T22:10:23.763Z,23.00
2018-09-08T22:12:50.420Z,22.99
2018-09-08T22:15:17.879Z,23.01
2018-09-08T22:17:44.516Z,22.98
2018-09-08T22:20:12.248Z,22.98
2018-09-08T22:22:38.892Z,22.97
2018-09-08T22:25:05.720Z,22.99
2018-09-08T22:27:33.169Z,22.96
2018-09-08T22:29:59.832Z,22.97
2018-09-08T22:32:26.489Z,23.02
2018-09-08T22:34:54.101Z,22.96
2018-09-08T22:37:21.816Z,22.95
2018-09-08T22:39:49.740Z,22.93
2018-09-08T22:42:16.441Z,22.92
2018-09-08T22:44:43.080Z,22.91
2018-09-08T22:47:09.712Z,22.92
2018-09-08T22:49:36.366Z,22.90
2018-09-08T22:52:03.875Z,22.91
2018-09-08T22:54:31.465Z,22.92
2018-09-08T22:56:59.094Z,22.94
2018-09-08T22:59:25.742Z,22.95
2018-09-08T23:01:54.003Z,22.99
2018-09-08T23:04:20.652Z,22.99
2018-09-08T23:06:47.336Z,23.04
2018-09-08T23:09:13.988Z,23.00
2018-09-08T23:11:40.652Z,23.02
2018-09-08T23:14:07.339Z,23.00
2018-09-08T23:16:34.000Z,22.99
2018-09-08T23:19:00.653Z,22.98
2018-09-08T23:21:27.330Z,22.96
2018-09-08T23:23:53.976Z,22.96
2018-09-08T23:26:20.647Z,22.97
2018-09-08T23:28:47.951Z,22.94
2018-09-08T23:31:15.517Z,22.94
2018-09-08T23:33:42.171Z,22.98
2018-09-08T23:36:09.838Z,22.99
2018-09-08T23:38:37.378Z,23.01
2018-09-08T23:41:04.957Z,23.02
2018-09-08T23:43:31.683Z,22.98
2018-09-08T23:45:58.408Z,23.03
2018-09-08T23:48:25.096Z,23.03
2018-09-08T23:50:52.709Z,22.99
2018-09-08T23:53:20.393Z,23.00
2018-09-08T23:55:49.393Z,22.97
2018-09-08T23:58:16.927Z,22.97
